createdAt,value
2023-03-04T00:00:43.051Z,4.55
2023-03-04T00:05:39.377Z,4.51
2023-03-04T00:10:35.869Z,4.57
2023-03-04T00:15:32.297Z,4.58
2023-03-04T00:20:28.665Z,4.57
2023-03-04T00:25:25.120Z,4.58
2023-03-04T00:30:21.592Z,4.64
2023-03-04T00:35:18.056Z,4.62
2023-03-04T00:40:14.703Z,4.60
2023-03-04T00:45:11.280Z,4.63
2023-03-04T00:50:08.141Z,4.63
2023-03-04T00:55:05.481Z,4.62
2023-03-04T01:00:01.858Z,4.69
2023-03-04T01:04:58.233Z,4.71
2023-03-04T01:09:54.609Z,4.69
2023-03-04T01:14:53.411Z,4.66
2023-03-04T01:19:49.862Z,4.70
2023-03-04T01:24:46.299Z,4.69
2023-03-04T01:29:42.785Z,4.70
2023-03-04T01:34:39.224Z,4.70
2023-03-04T01:39:36.334Z,4.73
2023-03-04T01:44:33.413Z,4.72
2023-03-04T01:49:29.824Z,4.76
2023-03-04T01:54:26.281Z,4.74
2023-03-04T01:59:24.670Z,4.77
2023-03-04T02:04:28.918Z,4.73
2023-03-04T02:09:25.842Z,4.73
2023-03-04T02:14:22.956Z,4.74
2023-03-04T02:19:42.058Z,4.76
2023-03-04T02:24:50.057Z,4.78
2023-03-04T02:29:46.497Z,4.80
2023-03-04T02:34:48.419Z,4.75
2023-03-04T02:39:47.398Z,4.76
2023-03-04T02:44:47.547Z,4.72
2023-03-04T02:49:44.469Z,4.71
2023-03-04T02:54:41.140Z,4.68
2023-03-04T02:59:39.667Z,4.69
2023-03-04T03:04:38.879Z,4.72
2023-03-04T03:09:35.310Z,4.69
2023-03-04T03:14:31.696Z,4.71
2023-03-04T03:19:28.074Z,4.73
2023-03-04T03:24:24.481Z,4.75
2023-03-04T03:29:20.908Z,4.77
2023-03-04T03:34:17.393Z,4.81
2023-03-04T03:39:15.548Z,4.80
2023-03-04T03:44:12.000Z,4.84
2023-03-04T03:49:08.592Z,4.79
2023-03-04T03:54:05.009Z,4.68
2023-03-04T03:59:01.529Z,4.65
2023-03-04T04:03:58.041Z,4.64
2023-03-04T04:08:54.439Z,4.72
2023-03-04T04:13:50.801Z,4.68
2023-03-04T04:18:47.381Z,4.70
2023-03-04T04:23:43.795Z,4.70
2023-03-04T04:28:40.193Z,4.76
2023-03-04T04:33:37.352Z,4.78
2023-03-04T04:38:33.755Z,4.79
2023-03-04T04:43:30.131Z,4.84
2023-03-04T04:48:26.616Z,4.88
2023-03-04T04:53:23.057Z,4.91
2023-03-04T04:58:19.513Z,4.89
2023-03-04T05:03:18.358Z,4.89
2023-03-04T05:08:15.042Z,4.90
2023-03-04T05:13:11.436Z,4.88
2023-03-04T05:18:07.809Z,4.85
2023-03-04T05:23:04.505Z,4.89
2023-03-04T05:28:02.021Z,4.91
2023-03-04T05:32:58.578Z,4.83
2023-03-04T05:37:55.028Z,4.71
2023-03-04T05:42:51.475Z,4.74
2023-03-04T05:47:47.914Z,4.68
2023-03-04T05:52:44.575Z,4.60
2023-03-04T05:57:40.980Z,4.63
2023-03-04T06:02:37.805Z,4.58
2023-03-04T06:07:34.610Z,4.60
2023-03-04T06:12:31.060Z,4.57
2023-03-04T06:17:27.529Z,4.56
2023-03-04T06:22:24.068Z,4.40
2023-03-04T06:27:20.468Z,4.41
2023-03-04T06:32:16.982Z,4.33
2023-03-04T06:37:13.443Z,4.30
2023-03-04T06:42:09.889Z,4.30
2023-03-04T06:47:06.911Z,4.35
2023-03-04T06:52:03.381Z,4.27
2023-03-04T06:56:59.840Z,4.39
2023-03-04T07:01:56.409Z,4.38
2023-03-04T07:06:52.855Z,4.36
2023-03-04T07:11:49.310Z,4.42
2023-03-04T07:16:45.729Z,4.35
2023-03-04T07:21:42.279Z,4.31
2023-03-04T07:26:39.208Z,4.26
2023-03-04T07:31:36.892Z,4.45
2023-03-04T07:36:35.509Z,4.25
2023-03-04T07:41:32.449Z,4.35
2023-03-04T07:46:28.988Z,4.37
2023-03-04T07:51:26.841Z,4.29
2023-03-04T07:56:26.063Z,4.21
2023-03-04T08:01:25.261Z,4.28
2023-03-04T08:06:23.108Z,4.18
2023-03-04T08:11:20.961Z,4.21
2023-03-04T08:16:19.063Z,4.24
2023-03-04T08:21:19.214Z,4.30
2023-03-04T08:26:27.233Z,4.30
2023-03-04T08:31:24.761Z,4.31
2023-03-04T08:36:21.264Z,4.31
2023-03-04T08:41:17.680Z,4.35
2023-03-04T08:46:14.269Z,4.37
2023-03-04T08:51:12.859Z,4.48
2023-03-04T08:56:10.337Z,4.54
2023-03-04T09:01:12.230Z,4.41
2023-03-04T09:06:09.574Z,4.24
2023-03-04T09:11:06.742Z,4.34
2023-03-04T09:16:10.816Z,4.33
2023-03-04T09:21:08.709Z,4.30
2023-03-04T09:26:20.757Z,4.45
2023-03-04T09:31:20.411Z,4.25
2023-03-04T09:36:17.533Z,4.35
2023-03-04T09:41:21.638Z,4.38
2023-03-04T09:46:35.496Z,4.45
2023-03-04T09:51:48.588Z,4.55
2023-03-04T09:56:44.901Z,4.54
2023-03-04T10:02:19.732Z,4.73
2023-03-04T10:07:21.267Z,4.66
2023-03-04T10:12:24.396Z,4.78
2023-03-04T10:17:40.362Z,4.93
2023-03-04T10:22:49.899Z,4.79
2023-03-04T10:27:56.457Z,4.78
2023-03-04T10:32:52.871Z,5.01
2023-03-04T10:37:50.875Z,5.05
2023-03-04T10:42:50.015Z,5.24
2023-03-04T10:47:53.296Z,5.07
2023-03-04T10:52:52.937Z,5.16
2023-03-04T10:57:55.210Z,5.07
2023-03-04T11:02:52.939Z,5.26
2023-03-04T11:07:58.648Z,5.18
2023-03-04T11:13:12.815Z,5.28
2023-03-04T11:18:13.658Z,5.54
2023-03-04T11:23:51.461Z,5.53
2023-03-04T11:29:05.612Z,5.97
2023-03-04T11:34:13.627Z,5.76
2023-03-04T11:39:32.802Z,5.69
2023-03-04T11:44:30.545Z,5.96
2023-03-04T11:49:46.617Z,5.95
2023-03-04T11:55:25.340Z,5.74
2023-03-04T12:00:40.787Z,6.05
2023-03-04T12:05:43.294Z,5.67
2023-03-04T12:11:00.115Z,5.36
2023-03-04T12:16:14.786Z,5.46
2023-03-04T12:21:39.531Z,5.68
2023-03-04T12:27:24.538Z,5.65
2023-03-04T12:32:21.081Z,5.44
2023-03-04T12:37:26.500Z,5.54
2023-03-04T12:42:37.729Z,5.77
2023-03-04T12:48:00.354Z,6.16
2023-03-04T12:53:17.540Z,6.16
2023-03-04T12:58:18.629Z,8.23
2023-03-04T13:03:38.308Z,9.15
2023-03-04T13:09:01.248Z,8.16
2023-03-04T13:14:21.926Z,7.41
2023-03-04T13:19:55.883Z,6.58
2023-03-04T13:24:52.513Z,6.51
2023-03-04T13:29:48.915Z,6.80
2023-03-04T13:34:52.810Z,6.71
2023-03-04T13:40:23.095Z,6.12
2023-03-04T13:45:34.618Z,6.23
2023-03-04T13:50:45.749Z,5.94
2023-03-04T13:55:43.990Z,6.10
2023-03-04T14:00:48.555Z,5.91
2023-03-04T14:05:45.041Z,5.81
2023-03-04T14:10:41.827Z,5.81
2023-03-04T14:15:39.203Z,5.47
2023-03-04T14:20:39.447Z,5.30
2023-03-04T14:25:37.010Z,5.54
2023-03-04T14:30:42.667Z,5.51
2023-03-04T14:35:47.405Z,5.58
2023-03-04T14:40:53.058Z,5.57
2023-03-04T14:45:53.292Z,5.29
2023-03-04T14:50:51.065Z,5.24
2023-03-04T14:56:00.971Z,5.28
2023-03-04T15:01:13.813Z,5.17
2023-03-04T15:06:18.889Z,5.18
2023-03-04T15:11:27.170Z,4.99
2023-03-04T15:16:26.540Z,4.93
2023-03-04T15:21:32.006Z,-146.18
2023-03-04T15:26:28.402Z,-146.18
2023-03-04T15:31:28.661Z,-146.18
2023-03-04T15:36:25.211Z,4.57
2023-03-04T15:41:25.203Z,4.68
2023-03-04T15:46:21.822Z,4.52
2023-03-04T15:51:22.503Z,4.45
2023-03-04T15:56:28.037Z,4.37
2023-03-04T16:01:25.108Z,4.37
2023-03-04T16:06:23.310Z,4.28
2023-03-04T16:11:26.672Z,4.28
2023-03-04T16:16:23.137Z,4.17
2023-03-04T16:21:23.156Z,4.11
2023-03-04T16:26:24.505Z,4.11
2023-03-04T16:31:21.934Z,4.19
2023-03-04T16:36:19.949Z,4.07
2023-03-04T16:41:20.279Z,4.18
2023-03-04T16:46:16.839Z,4.00
2023-03-04T16:51:18.372Z,3.91
2023-03-04T16:56:19.094Z,3.84
2023-03-04T17:01:19.415Z,3.81
2023-03-04T17:06:16.479Z,3.72
2023-03-04T17:11:17.255Z,3.76
2023-03-04T17:16:15.356Z,3.66
2023-03-04T17:21:15.517Z,3.63
2023-03-04T17:26:12.201Z,3.61
2023-03-04T17:31:12.957Z,3.59
2023-03-04T17:36:15.089Z,3.50
2023-03-04T17:41:16.415Z,3.46
2023-03-04T17:46:15.120Z,3.38
2023-03-04T17:51:12.041Z,3.38
2023-03-04T17:56:10.573Z,3.25
2023-03-04T18:01:17.610Z,3.20
2023-03-04T18:06:14.719Z,3.08
2023-03-04T18:11:11.608Z,3.06
2023-03-04T18:16:09.063Z,2.98
2023-03-04T18:21:05.874Z,2.92
2023-03-04T18:26:04.275Z,2.85
2023-03-04T18:31:01.712Z,2.73
2023-03-04T18:36:05.677Z,2.72
2023-03-04T18:41:07.535Z,2.72
2023-03-04T18:46:05.971Z,2.72
2023-03-04T18:51:02.549Z,2.64
2023-03-04T18:56:03.640Z,2.65
2023-03-04T19:01:01.664Z,2.63
2023-03-04T19:05:59.040Z,2.43
2023-03-04T19:10:56.094Z,2.38
2023-03-04T19:15:54.293Z,2.29
2023-03-04T19:20:50.720Z,2.21
2023-03-04T19:25:47.477Z,2.09
2023-03-04T19:30:44.055Z,2.10
2023-03-04T19:35:42.699Z,2.09
2023-03-04T19:40:40.420Z,2.16
2023-03-04T19:45:36.944Z,2.24
2023-03-04T19:50:33.421Z,2.18
2023-03-04T19:55:29.910Z,2.16
2023-03-04T20:00:26.318Z,2.17
2023-03-04T20:05:22.791Z,2.21
2023-03-04T20:10:19.579Z,2.21
2023-03-04T20:15:16.297Z,2.16
2023-03-04T20:20:14.232Z,2.05
2023-03-04T20:25:10.668Z,1.96
2023-03-04T20:30:07.665Z,1.94
2023-03-04T20:35:04.237Z,1.96
2023-03-04T20:40:00.655Z,2.00
2023-03-04T20:44:57.115Z,2.02
2023-03-04T20:49:53.682Z,2.12
2023-03-04T20:54:50.083Z,2.13
2023-03-04T20:59:46.465Z,2.14
2023-03-04T21:04:43.853Z,2.17
2023-03-04T21:09:40.511Z,2.31
2023-03-04T21:14:36.911Z,2.36
2023-03-04T21:19:36.796Z,2.36
2023-03-04T21:24:35.571Z,2.31
2023-03-04T21:29:32.647Z,2.34
2023-03-04T21:34:39.112Z,2.40
2023-03-04T21:39:36.426Z,2.35
2023-03-04T21:44:48.555Z,2.43
2023-03-04T21:49:45.692Z,2.47
2023-03-04T21:54:42.123Z,2.43
2023-03-04T21:59:38.774Z,2.51
2023-03-04T22:04:35.430Z,2.28
2023-03-04T22:09:32.205Z,2.11
2023-03-04T22:14:29.514Z,2.13
2023-03-04T22:19:29.976Z,2.01
2023-03-04T22:24:26.368Z,1.99
2023-03-04T22:29:22.822Z,2.03
2023-03-04T22:34:19.561Z,2.07
2023-03-04T22:39:22.746Z,2.13
2023-03-04T22:44:19.216Z,2.10
2023-03-04T22:49:15.652Z,2.09
2023-03-04T22:54:16.273Z,2.08
2023-03-04T22:59:13.595Z,2.12
2023-03-04T23:04:10.065Z,2.09
2023-03-04T23:09:06.748Z,2.11
2023-03-04T23:14:06.903Z,2.07
2023-03-04T23:19:04.948Z,2.07
2023-03-04T23:24:02.661Z,2.07
2023-03-04T23:29:01.384Z,2.08
2023-03-04T23:33:58.882Z,2.08
2023-03-04T23:38:56.215Z,2.02
2023-03-04T23:43:54.668Z,1.99
2023-03-04T23:48:52.489Z,1.99
2023-03-04T23:53:48.933Z,2.00
2023-03-04T23:58:45.977Z,1.98
